sensor_id;sensor_type;location;lat;lon;timestamp;P1;durP1;ratioP1;P2;durP2;ratioP2
75520;SDS011;64102;48.628;9.002;2023-02-07T00:00:00;6.10;;;1.02;;
75520;SDS011;64102;48.628;9.002;2023-02-07T00:02:26;6.18;;;0.77;;
75520;SDS011;64102;48.628;9.002;2023-02-07T00:04:52;5.83;;;0.50;;
75520;SDS011;64102;48.628;9.002;2023-02-07T00:07:17;4.57;;;0.60;;
75520;SDS011;64102;48.628;9.002;2023-02-07T00:09:42;4.20;;;0.50;;
75520;SDS011;64102;48.628;9.002;2023-02-07T00:12:08;4.40;;;0.52;;
75520;SDS011;64102;48.628;9.002;2023-02-07T00:14:33;4.53;;;0.60;;
75520;SDS011;64102;48.628;9.002;2023-02-07T00:16:58;5.73;;;1.00;;
75520;SDS011;64102;48.628;9.002;2023-02-07T00:19:24;2.50;;;0.30;;
75520;SDS011;64102;48.628;9.002;2023-02-07T00:21:49;3.43;;;0.40;;
75520;SDS011;64102;48.628;9.002;2023-02-07T00:24:14;4.17;;;0.20;;
75520;SDS011;64102;48.628;9.002;2023-02-07T00:26:40;3.83;;;0.30;;
75520;SDS011;64102;48.628;9.002;2023-02-07T00:29:05;5.63;;;0.30;;
75520;SDS011;64102;48.628;9.002;2023-02-07T00:31:31;2.53;;;0.20;;
75520;SDS011;64102;48.628;9.002;2023-02-07T00:33:59;8.23;;;0.70;;
75520;SDS011;64102;48.628;9.002;2023-02-07T00:36:27;4.80;;;0.40;;
75520;SDS011;64102;48.628;9.002;2023-02-07T00:39:01;5.45;;;0.60;;
75520;SDS011;64102;48.628;9.002;2023-02-07T00:41:29;5.57;;;0.52;;
75520;SDS011;64102;48.628;9.002;2023-02-07T00:43:55;2.88;;;0.32;;
75520;SDS011;64102;48.628;9.002;2023-02-07T00:46:20;3.67;;;0.20;;
75520;SDS011;64102;48.628;9.002;2023-02-07T00:48:46;4.35;;;0.40;;
75520;SDS011;64102;48.628;9.002;2023-02-07T00:51:11;4.65;;;0.40;;
75520;SDS011;64102;48.628;9.002;2023-02-07T00:53:38;8.90;;;1.65;;
75520;SDS011;64102;48.628;9.002;2023-02-07T00:56:04;3.72;;;0.63;;
75520;SDS011;64102;48.628;9.002;2023-02-07T00:58:30;7.13;;;0.93;;
75520;SDS011;64102;48.628;9.002;2023-02-07T01:00:55;4.13;;;0.30;;
75520;SDS011;64102;48.628;9.002;2023-02-07T01:03:20;10.00;;;1.40;;
75520;SDS011;64102;48.628;9.002;2023-02-07T01:05:46;3.23;;;0.50;;
75520;SDS011;64102;48.628;9.002;2023-02-07T01:08:11;6.28;;;0.63;;
75520;SDS011;64102;48.628;9.002;2023-02-07T01:10:42;2.40;;;0.13;;
75520;SDS011;64102;48.628;9.002;2023-02-07T01:13:08;7.70;;;1.45;;
75520;SDS011;64102;48.628;9.002;2023-02-07T01:15:38;5.63;;;0.93;;
75520;SDS011;64102;48.628;9.002;2023-02-07T01:18:04;8.30;;;1.20;;
75520;SDS011;64102;48.628;9.002;2023-02-07T01:20:30;8.05;;;0.88;;
75520;SDS011;64102;48.628;9.002;2023-02-07T01:22:55;4.30;;;0.47;;
75520;SDS011;64102;48.628;9.002;2023-02-07T01:25:21;6.03;;;0.93;;
75520;SDS011;64102;48.628;9.002;2023-02-07T01:27:46;6.47;;;0.85;;
75520;SDS011;64102;48.628;9.002;2023-02-07T01:30:12;7.23;;;1.00;;
75520;SDS011;64102;48.628;9.002;2023-02-07T01:32:37;3.47;;;0.55;;
75520;SDS011;64102;48.628;9.002;2023-02-07T01:35:03;2.60;;;0.23;;
75520;SDS011;64102;48.628;9.002;2023-02-07T01:37:28;4.75;;;0.40;;
75520;SDS011;64102;48.628;9.002;2023-02-07T01:39:54;1.97;;;0.17;;
75520;SDS011;64102;48.628;9.002;2023-02-07T01:42:19;3.00;;;0.40;;
75520;SDS011;64102;48.628;9.002;2023-02-07T01:45:07;6.32;;;0.93;;
75520;SDS011;64102;48.628;9.002;2023-02-07T01:47:42;7.20;;;1.02;;
75520;SDS011;64102;48.628;9.002;2023-02-07T01:50:07;2.00;;;0.17;;
75520;SDS011;64102;48.628;9.002;2023-02-07T01:52:35;4.60;;;0.35;;
75520;SDS011;64102;48.628;9.002;2023-02-07T01:55:05;7.88;;;1.50;;
75520;SDS011;64102;48.628;9.002;2023-02-07T01:57:34;6.25;;;1.08;;
75520;SDS011;64102;48.628;9.002;2023-02-07T01:59:59;6.38;;;0.88;;
75520;SDS011;64102;48.628;9.002;2023-02-07T02:02:26;4.25;;;0.47;;
75520;SDS011;64102;48.628;9.002;2023-02-07T02:04:55;9.02;;;1.45;;
75520;SDS011;64102;48.628;9.002;2023-02-07T02:07:22;9.23;;;1.20;;
75520;SDS011;64102;48.628;9.002;2023-02-07T02:09:49;8.63;;;1.63;;
75520;SDS011;64102;48.628;9.002;2023-02-07T02:34:33;8.50;;;1.70;;
75520;SDS011;64102;48.628;9.002;2023-02-07T02:43:44;5.05;;;1.63;;
75520;SDS011;64102;48.628;9.002;2023-02-07T02:46:16;4.45;;;0.60;;
75520;SDS011;64102;48.628;9.002;2023-02-07T02:48:45;7.55;;;1.08;;
75520;SDS011;64102;48.628;9.002;2023-02-07T02:51:11;11.00;;;1.42;;
75520;SDS011;64102;48.628;9.002;2023-02-07T02:53:37;8.82;;;1.77;;
75520;SDS011;64102;48.628;9.002;2023-02-07T02:56:17;7.18;;;0.75;;
75520;SDS011;64102;48.628;9.002;2023-02-07T02:59:11;8.70;;;1.83;;
75520;SDS011;64102;48.628;9.002;2023-02-07T03:07:25;3.83;;;0.65;;
75520;SDS011;64102;48.628;9.002;2023-02-07T03:10:06;5.88;;;0.98;;
75520;SDS011;64102;48.628;9.002;2023-02-07T03:16:19;9.45;;;0.90;;
75520;SDS011;64102;48.628;9.002;2023-02-07T03:19:03;7.72;;;1.17;;
75520;SDS011;64102;48.628;9.002;2023-02-07T03:21:35;2.17;;;0.50;;
75520;SDS011;64102;48.628;9.002;2023-02-07T03:24:04;2.28;;;0.30;;
75520;SDS011;64102;48.628;9.002;2023-02-07T03:26:34;2.30;;;0.35;;
75520;SDS011;64102;48.628;9.002;2023-02-07T03:29:00;6.85;;;1.08;;
75520;SDS011;64102;48.628;9.002;2023-02-07T03:31:29;2.90;;;0.30;;
75520;SDS011;64102;48.628;9.002;2023-02-07T03:33:58;7.10;;;1.00;;
75520;SDS011;64102;48.628;9.002;2023-02-07T03:36:33;2.08;;;0.32;;
75520;SDS011;64102;48.628;9.002;2023-02-07T03:39:05;1.35;;;0.10;;
75520;SDS011;64102;48.628;9.002;2023-02-07T03:41:37;1.75;;;0.17;;
75520;SDS011;64102;48.628;9.002;2023-02-07T03:44:08;6.70;;;0.90;;
75520;SDS011;64102;48.628;9.002;2023-02-07T03:46:37;4.35;;;0.50;;
75520;SDS011;64102;48.628;9.002;2023-02-07T03:49:03;4.50;;;0.88;;
75520;SDS011;64102;48.628;9.002;2023-02-07T03:51:31;1.98;;;0.38;;
75520;SDS011;64102;48.628;9.002;2023-02-07T03:53:57;1.73;;;0.10;;
75520;SDS011;64102;48.628;9.002;2023-02-07T03:56:22;2.65;;;0.60;;
75520;SDS011;64102;48.628;9.002;2023-02-07T03:58:47;5.23;;;0.67;;
75520;SDS011;64102;48.628;9.002;2023-02-07T04:01:13;5.17;;;1.00;;
75520;SDS011;64102;48.628;9.002;2023-02-07T04:03:38;2.60;;;0.43;;
75520;SDS011;64102;48.628;9.002;2023-02-07T04:06:03;7.53;;;1.27;;
75520;SDS011;64102;48.628;9.002;2023-02-07T04:08:29;4.32;;;0.40;;
75520;SDS011;64102;48.628;9.002;2023-02-07T04:10:59;7.15;;;0.57;;
75520;SDS011;64102;48.628;9.002;2023-02-07T04:13:26;1.95;;;0.10;;
75520;SDS011;64102;48.628;9.002;2023-02-07T04:15:51;2.35;;;0.70;;
75520;SDS011;64102;48.628;9.002;2023-02-07T04:18:17;5.73;;;0.67;;
75520;SDS011;64102;48.628;9.002;2023-02-07T04:20:42;1.52;;;0.45;;
75520;SDS011;64102;48.628;9.002;2023-02-07T04:23:07;4.20;;;0.97;;
75520;SDS011;64102;48.628;9.002;2023-02-07T04:25:33;3.30;;;0.40;;
75520;SDS011;64102;48.628;9.002;2023-02-07T04:27:58;4.77;;;0.93;;
75520;SDS011;64102;48.628;9.002;2023-02-07T04:30:23;2.10;;;0.20;;
75520;SDS011;64102;48.628;9.002;2023-02-07T04:32:49;3.60;;;0.55;;
75520;SDS011;64102;48.628;9.002;2023-02-07T04:35:14;5.40;;;0.57;;
75520;SDS011;64102;48.628;9.002;2023-02-07T04:37:39;2.65;;;0.47;;
75520;SDS011;64102;48.628;9.002;2023-02-07T04:40:05;1.15;;;0.30;;
75520;SDS011;64102;48.628;9.002;2023-02-07T04:42:31;3.90;;;1.02;;
75520;SDS011;64102;48.628;9.002;2023-02-07T04:44:56;10.25;;;0.43;;
75520;SDS011;64102;48.628;9.002;2023-02-07T04:47:21;6.37;;;0.80;;
75520;SDS011;64102;48.628;9.002;2023-02-07T04:49:47;5.38;;;0.40;;
75520;SDS011;64102;48.628;9.002;2023-02-07T04:52:12;4.80;;;0.73;;
75520;SDS011;64102;48.628;9.002;2023-02-07T04:54:38;5.60;;;1.42;;
75520;SDS011;64102;48.628;9.002;2023-02-07T04:57:03;7.47;;;0.83;;
75520;SDS011;64102;48.628;9.002;2023-02-07T04:59:29;5.93;;;0.82;;
75520;SDS011;64102;48.628;9.002;2023-02-07T05:01:54;6.68;;;1.52;;
75520;SDS011;64102;48.628;9.002;2023-02-07T05:04:19;9.20;;;1.67;;
75520;SDS011;64102;48.628;9.002;2023-02-07T05:06:45;1.77;;;0.43;;
75520;SDS011;64102;48.628;9.002;2023-02-07T05:09:11;3.55;;;0.63;;
75520;SDS011;64102;48.628;9.002;2023-02-07T05:11:36;2.33;;;0.20;;
75520;SDS011;64102;48.628;9.002;2023-02-07T05:14:02;1.73;;;0.40;;
75520;SDS011;64102;48.628;9.002;2023-02-07T05:16:27;1.00;;;0.20;;
75520;SDS011;64102;48.628;9.002;2023-02-07T05:18:52;0.20;;;0.05;;
75520;SDS011;64102;48.628;9.002;2023-02-07T05:21:18;6.43;;;0.73;;
75520;SDS011;64102;48.628;9.002;2023-02-07T05:23:43;1.52;;;0.10;;
75520;SDS011;64102;48.628;9.002;2023-02-07T05:26:08;3.07;;;0.77;;
75520;SDS011;64102;48.628;9.002;2023-02-07T05:28:34;3.28;;;0.85;;
75520;SDS011;64102;48.628;9.002;2023-02-07T05:30:59;2.90;;;0.40;;
75520;SDS011;64102;48.628;9.002;2023-02-07T05:33:24;6.70;;;0.73;;
75520;SDS011;64102;48.628;9.002;2023-02-07T05:35:50;4.28;;;0.52;;
75520;SDS011;64102;48.628;9.002;2023-02-07T05:38:16;2.67;;;0.67;;
75520;SDS011;64102;48.628;9.002;2023-02-07T05:40:43;5.65;;;0.60;;
75520;SDS011;64102;48.628;9.002;2023-02-07T05:43:10;2.65;;;0.43;;
75520;SDS011;64102;48.628;9.002;2023-02-07T05:45:36;11.40;;;1.55;;
75520;SDS011;64102;48.628;9.002;2023-02-07T05:48:01;3.10;;;0.73;;
75520;SDS011;64102;48.628;9.002;2023-02-07T05:50:27;6.00;;;1.02;;
75520;SDS011;64102;48.628;9.002;2023-02-07T05:52:52;8.38;;;1.63;;
75520;SDS011;64102;48.628;9.002;2023-02-07T05:55:18;7.40;;;1.00;;
75520;SDS011;64102;48.628;9.002;2023-02-07T05:57:44;3.35;;;0.60;;
75520;SDS011;64102;48.628;9.002;2023-02-07T06:00:13;3.42;;;0.60;;
75520;SDS011;64102;48.628;9.002;2023-02-07T06:02:41;7.95;;;0.85;;
75520;SDS011;64102;48.628;9.002;2023-02-07T06:05:11;2.33;;;0.45;;
75520;SDS011;64102;48.628;9.002;2023-02-07T06:07:38;3.30;;;1.02;;
75520;SDS011;64102;48.628;9.002;2023-02-07T06:10:03;3.75;;;0.43;;
75520;SDS011;64102;48.628;9.002;2023-02-07T06:12:30;7.50;;;1.25;;
75520;SDS011;64102;48.628;9.002;2023-02-07T06:14:55;3.90;;;1.48;;
75520;SDS011;64102;48.628;9.002;2023-02-07T06:17:21;5.35;;;1.13;;
75520;SDS011;64102;48.628;9.002;2023-02-07T06:19:47;6.47;;;0.93;;
75520;SDS011;64102;48.628;9.002;2023-02-07T06:22:12;4.97;;;0.98;;
75520;SDS011;64102;48.628;9.002;2023-02-07T06:24:38;1.80;;;0.43;;
75520;SDS011;64102;48.628;9.002;2023-02-07T06:27:04;5.80;;;0.83;;
75520;SDS011;64102;48.628;9.002;2023-02-07T06:29:29;2.20;;;0.47;;
75520;SDS011;64102;48.628;9.002;2023-02-07T06:31:54;9.10;;;1.25;;
75520;SDS011;64102;48.628;9.002;2023-02-07T06:34:20;6.85;;;1.15;;
75520;SDS011;64102;48.628;9.002;2023-02-07T06:36:45;4.18;;;0.88;;
75520;SDS011;64102;48.628;9.002;2023-02-07T06:39:10;7.40;;;1.83;;
75520;SDS011;64102;48.628;9.002;2023-02-07T06:41:36;3.13;;;0.55;;
75520;SDS011;64102;48.628;9.002;2023-02-07T06:44:01;5.63;;;0.98;;
75520;SDS011;64102;48.628;9.002;2023-02-07T06:46:26;4.45;;;0.65;;
75520;SDS011;64102;48.628;9.002;2023-02-07T06:48:52;5.57;;;1.23;;
75520;SDS011;64102;48.628;9.002;2023-02-07T06:51:17;3.97;;;1.03;;
75520;SDS011;64102;48.628;9.002;2023-02-07T06:53:43;5.10;;;0.85;;
75520;SDS011;64102;48.628;9.002;2023-02-07T06:56:08;5.88;;;1.80;;
75520;SDS011;64102;48.628;9.002;2023-02-07T06:58:33;6.30;;;0.40;;
75520;SDS011;64102;48.628;9.002;2023-02-07T07:01:02;5.07;;;0.70;;
75520;SDS011;64102;48.628;9.002;2023-02-07T07:03:29;5.85;;;0.82;;
75520;SDS011;64102;48.628;9.002;2023-02-07T07:05:57;7.18;;;1.20;;
75520;SDS011;64102;48.628;9.002;2023-02-07T07:08:24;6.72;;;1.15;;
75520;SDS011;64102;48.628;9.002;2023-02-07T07:10:50;5.45;;;1.15;;
75520;SDS011;64102;48.628;9.002;2023-02-07T07:13:16;19.98;;;4.03;;
75520;SDS011;64102;48.628;9.002;2023-02-07T07:15:41;10.02;;;2.15;;
75520;SDS011;64102;48.628;9.002;2023-02-07T07:18:07;10.25;;;1.85;;
75520;SDS011;64102;48.628;9.002;2023-02-07T07:20:32;8.87;;;2.67;;
75520;SDS011;64102;48.628;9.002;2023-02-07T07:22:57;11.23;;;2.30;;
75520;SDS011;64102;48.628;9.002;2023-02-07T07:25:23;8.20;;;2.10;;
75520;SDS011;64102;48.628;9.002;2023-02-07T07:27:52;4.85;;;0.55;;
75520;SDS011;64102;48.628;9.002;2023-02-07T07:30:17;7.75;;;0.55;;
75520;SDS011;64102;48.628;9.002;2023-02-07T07:32:43;8.45;;;1.55;;
75520;SDS011;64102;48.628;9.002;2023-02-07T07:35:08;11.57;;;1.30;;
75520;SDS011;64102;48.628;9.002;2023-02-07T07:37:33;8.80;;;1.73;;
75520;SDS011;64102;48.628;9.002;2023-02-07T07:39:59;11.68;;;1.95;;
75520;SDS011;64102;48.628;9.002;2023-02-07T07:42:24;8.07;;;1.60;;
75520;SDS011;64102;48.628;9.002;2023-02-07T07:44:50;8.27;;;1.20;;
75520;SDS011;64102;48.628;9.002;2023-02-07T07:47:15;8.80;;;1.52;;
75520;SDS011;64102;48.628;9.002;2023-02-07T07:49:42;7.78;;;1.38;;
75520;SDS011;64102;48.628;9.002;2023-02-07T07:52:08;7.38;;;2.00;;
75520;SDS011;64102;48.628;9.002;2023-02-07T07:54:33;8.23;;;1.33;;
75520;SDS011;64102;48.628;9.002;2023-02-07T07:56:59;7.40;;;1.53;;
75520;SDS011;64102;48.628;9.002;2023-02-07T07:59:24;10.40;;;2.13;;
75520;SDS011;64102;48.628;9.002;2023-02-07T08:01:49;11.20;;;2.83;;
75520;SDS011;64102;48.628;9.002;2023-02-07T08:04:16;11.13;;;2.17;;
75520;SDS011;64102;48.628;9.002;2023-02-07T08:06:41;8.23;;;1.67;;
75520;SDS011;64102;48.628;9.002;2023-02-07T08:09:06;9.03;;;1.90;;
75520;SDS011;64102;48.628;9.002;2023-02-07T08:11:32;9.82;;;2.25;;
75520;SDS011;64102;48.628;9.002;2023-02-07T08:13:57;9.88;;;1.88;;
75520;SDS011;64102;48.628;9.002;2023-02-07T08:16:22;10.10;;;2.17;;
75520;SDS011;64102;48.628;9.002;2023-02-07T08:18:48;9.23;;;2.17;;
75520;SDS011;64102;48.628;9.002;2023-02-07T08:21:13;9.48;;;2.28;;
75520;SDS011;64102;48.628;9.002;2023-02-07T08:23:39;10.90;;;2.28;;
75520;SDS011;64102;48.628;9.002;2023-02-07T08:26:05;9.43;;;1.77;;
75520;SDS011;64102;48.628;9.002;2023-02-07T08:28:33;10.05;;;2.28;;
75520;SDS011;64102;48.628;9.002;2023-02-07T08:31:02;7.15;;;1.15;;
75520;SDS011;64102;48.628;9.002;2023-02-07T08:33:29;11.68;;;2.10;;
75520;SDS011;64102;48.628;9.002;2023-02-07T08:35:55;9.40;;;1.73;;
75520;SDS011;64102;48.628;9.002;2023-02-07T08:38:21;9.98;;;1.55;;
75520;SDS011;64102;48.628;9.002;2023-02-07T08:40:46;9.88;;;1.95;;
75520;SDS011;64102;48.628;9.002;2023-02-07T08:43:12;8.85;;;1.85;;
75520;SDS011;64102;48.628;9.002;2023-02-07T08:45:39;8.02;;;1.70;;
75520;SDS011;64102;48.628;9.002;2023-02-07T08:48:06;7.47;;;1.23;;
75520;SDS011;64102;48.628;9.002;2023-02-07T08:50:32;9.82;;;1.65;;
75520;SDS011;64102;48.628;9.002;2023-02-07T08:52:57;8.13;;;1.48;;
75520;SDS011;64102;48.628;9.002;2023-02-07T08:55:23;10.17;;;2.27;;
75520;SDS011;64102;48.628;9.002;2023-02-07T08:57:48;6.20;;;1.13;;
75520;SDS011;64102;48.628;9.002;2023-02-07T09:00:14;7.80;;;1.60;;
75520;SDS011;64102;48.628;9.002;2023-02-07T09:02:40;11.20;;;2.03;;
75520;SDS011;64102;48.628;9.002;2023-02-07T09:05:07;7.70;;;1.30;;
75520;SDS011;64102;48.628;9.002;2023-02-07T09:07:33;7.97;;;1.63;;
75520;SDS011;64102;48.628;9.002;2023-02-07T09:09:58;8.60;;;1.55;;
75520;SDS011;64102;48.628;9.002;2023-02-07T09:12:24;9.27;;;2.13;;
75520;SDS011;64102;48.628;9.002;2023-02-07T09:14:49;8.35;;;1.50;;
75520;SDS011;64102;48.628;9.002;2023-02-07T09:17:15;7.82;;;1.38;;
75520;SDS011;64102;48.628;9.002;2023-02-07T09:19:40;9.23;;;2.00;;
75520;SDS011;64102;48.628;9.002;2023-02-07T09:22:05;11.70;;;1.85;;
75520;SDS011;64102;48.628;9.002;2023-02-07T09:24:31;8.93;;;1.52;;
75520;SDS011;64102;48.628;9.002;2023-02-07T09:26:56;7.03;;;0.98;;
75520;SDS011;64102;48.628;9.002;2023-02-07T09:29:22;4.43;;;0.52;;
75520;SDS011;64102;48.628;9.002;2023-02-07T09:31:47;10.67;;;1.27;;
75520;SDS011;64102;48.628;9.002;2023-02-07T09:34:12;5.50;;;0.90;;
75520;SDS011;64102;48.628;9.002;2023-02-07T09:36:38;6.05;;;1.10;;
75520;SDS011;64102;48.628;9.002;2023-02-07T09:39:03;9.70;;;1.45;;
75520;SDS011;64102;48.628;9.002;2023-02-07T09:41:49;4.18;;;0.55;;
75520;SDS011;64102;48.628;9.002;2023-02-07T09:44:37;8.75;;;1.45;;
75520;SDS011;64102;48.628;9.002;2023-02-07T09:47:10;7.13;;;1.00;;
75520;SDS011;64102;48.628;9.002;2023-02-07T09:49:52;8.43;;;1.42;;
75520;SDS011;64102;48.628;9.002;2023-02-07T09:55:41;5.10;;;0.60;;
75520;SDS011;64102;48.628;9.002;2023-02-07T09:58:18;6.30;;;1.08;;
75520;SDS011;64102;48.628;9.002;2023-02-07T10:00:52;9.52;;;2.40;;
75520;SDS011;64102;48.628;9.002;2023-02-07T10:03:24;8.35;;;1.50;;
75520;SDS011;64102;48.628;9.002;2023-02-07T10:08:22;7.53;;;1.23;;
75520;SDS011;64102;48.628;9.002;2023-02-07T10:24:54;8.02;;;1.65;;
75520;SDS011;64102;48.628;9.002;2023-02-07T10:27:30;9.88;;;1.83;;
75520;SDS011;64102;48.628;9.002;2023-02-07T10:30:07;5.68;;;1.00;;
75520;SDS011;64102;48.628;9.002;2023-02-07T10:32:39;8.50;;;1.73;;
75520;SDS011;64102;48.628;9.002;2023-02-07T10:37:56;8.10;;;1.30;;
75520;SDS011;64102;48.628;9.002;2023-02-07T10:40:25;3.92;;;0.63;;
75520;SDS011;64102;48.628;9.002;2023-02-07T10:43:10;8.30;;;1.30;;
75520;SDS011;64102;48.628;9.002;2023-02-07T10:45:47;7.55;;;1.08;;
75520;SDS011;64102;48.628;9.002;2023-02-07T10:48:15;9.27;;;1.45;;
75520;SDS011;64102;48.628;9.002;2023-02-07T10:50:43;9.47;;;1.50;;
75520;SDS011;64102;48.628;9.002;2023-02-07T10:53:09;9.68;;;1.30;;
75520;SDS011;64102;48.628;9.002;2023-02-07T10:55:41;4.07;;;0.47;;
75520;SDS011;64102;48.628;9.002;2023-02-07T10:58:16;6.95;;;1.35;;
75520;SDS011;64102;48.628;9.002;2023-02-07T11:00:47;7.80;;;1.20;;
75520;SDS011;64102;48.628;9.002;2023-02-07T11:03:18;7.70;;;1.38;;
75520;SDS011;64102;48.628;9.002;2023-02-07T11:05:53;7.63;;;1.30;;
75520;SDS011;64102;48.628;9.002;2023-02-07T11:08:23;8.85;;;1.60;;
75520;SDS011;64102;48.628;9.002;2023-02-07T11:10:59;8.05;;;1.75;;
75520;SDS011;64102;48.628;9.002;2023-02-07T11:13:52;6.63;;;0.98;;
75520;SDS011;64102;48.628;9.002;2023-02-07T11:16:19;6.75;;;1.20;;
75520;SDS011;64102;48.628;9.002;2023-02-07T11:18:59;7.15;;;1.20;;
75520;SDS011;64102;48.628;9.002;2023-02-07T11:21:37;8.65;;;1.15;;
75520;SDS011;64102;48.628;9.002;2023-02-07T11:24:12;8.00;;;1.55;;
75520;SDS011;64102;48.628;9.002;2023-02-07T11:29:58;8.30;;;1.70;;
75520;SDS011;64102;48.628;9.002;2023-02-07T11:32:28;8.27;;;1.33;;
75520;SDS011;64102;48.628;9.002;2023-02-07T11:34:57;6.32;;;0.93;;
75520;SDS011;64102;48.628;9.002;2023-02-07T11:37:30;5.85;;;0.80;;
75520;SDS011;64102;48.628;9.002;2023-02-07T11:40:19;6.78;;;1.00;;
75520;SDS011;64102;48.628;9.002;2023-02-07T11:42:48;7.60;;;1.52;;
75520;SDS011;64102;48.628;9.002;2023-02-07T11:45:21;5.80;;;0.85;;
75520;SDS011;64102;48.628;9.002;2023-02-07T11:47:47;7.90;;;1.52;;
75520;SDS011;64102;48.628;9.002;2023-02-07T11:50:23;5.82;;;0.80;;
75520;SDS011;64102;48.628;9.002;2023-02-07T11:52:53;9.18;;;1.83;;
75520;SDS011;64102;48.628;9.002;2023-02-07T11:55:22;6.35;;;1.08;;
75520;SDS011;64102;48.628;9.002;2023-02-07T11:57:53;7.90;;;1.23;;
75520;SDS011;64102;48.628;9.002;2023-02-07T12:00:22;8.05;;;1.67;;
75520;SDS011;64102;48.628;9.002;2023-02-07T12:03:00;7.43;;;1.55;;
75520;SDS011;64102;48.628;9.002;2023-02-07T12:05:33;8.23;;;1.13;;
75520;SDS011;64102;48.628;9.002;2023-02-07T12:08:04;6.85;;;1.55;;
75520;SDS011;64102;48.628;9.002;2023-02-07T12:10:36;4.85;;;0.80;;
75520;SDS011;64102;48.628;9.002;2023-02-07T12:13:18;10.02;;;2.00;;
75520;SDS011;64102;48.628;9.002;2023-02-07T12:15:50;7.07;;;0.93;;
75520;SDS011;64102;48.628;9.002;2023-02-07T12:18:27;7.88;;;1.27;;
75520;SDS011;64102;48.628;9.002;2023-02-07T12:24:10;6.97;;;1.42;;
75520;SDS011;64102;48.628;9.002;2023-02-07T12:26:46;7.18;;;1.15;;
75520;SDS011;64102;48.628;9.002;2023-02-07T12:43:05;7.93;;;1.40;;
75520;SDS011;64102;48.628;9.002;2023-02-07T12:48:38;9.33;;;1.77;;
75520;SDS011;64102;48.628;9.002;2023-02-07T12:51:07;8.27;;;1.50;;
75520;SDS011;64102;48.628;9.002;2023-02-07T13:01:49;7.80;;;1.45;;
75520;SDS011;64102;48.628;9.002;2023-02-07T13:10:48;6.63;;;1.17;;
75520;SDS011;64102;48.628;9.002;2023-02-07T13:13:24;6.88;;;1.35;;
75520;SDS011;64102;48.628;9.002;2023-02-07T13:18:48;6.82;;;1.50;;
75520;SDS011;64102;48.628;9.002;2023-02-07T13:21:23;6.28;;;1.17;;
75520;SDS011;64102;48.628;9.002;2023-02-07T13:23:54;6.35;;;1.10;;
75520;SDS011;64102;48.628;9.002;2023-02-07T13:26:24;6.05;;;0.75;;
75520;SDS011;64102;48.628;9.002;2023-02-07T13:28:53;6.68;;;1.00;;
75520;SDS011;64102;48.628;9.002;2023-02-07T13:31:23;8.18;;;1.27;;
75520;SDS011;64102;48.628;9.002;2023-02-07T13:33:57;7.18;;;0.77;;
75520;SDS011;64102;48.628;9.002;2023-02-07T13:36:31;7.70;;;1.15;;
75520;SDS011;64102;48.628;9.002;2023-02-07T13:41:31;5.93;;;0.70;;
75520;SDS011;64102;48.628;9.002;2023-02-07T13:44:07;5.10;;;0.68;;
75520;SDS011;64102;48.628;9.002;2023-02-07T14:00:26;6.35;;;0.90;;
75520;SDS011;64102;48.628;9.002;2023-02-07T14:02:57;6.63;;;0.80;;
75520;SDS011;64102;48.628;9.002;2023-02-07T14:05:29;3.80;;;0.50;;
75520;SDS011;64102;48.628;9.002;2023-02-07T14:07:58;5.60;;;0.90;;
75520;SDS011;64102;48.628;9.002;2023-02-07T14:10:33;4.97;;;0.60;;
75520;SDS011;64102;48.628;9.002;2023-02-07T14:12:59;6.40;;;0.63;;
75520;SDS011;64102;48.628;9.002;2023-02-07T14:30:31;4.95;;;0.40;;
75520;SDS011;64102;48.628;9.002;2023-02-07T14:33:18;6.55;;;0.70;;
75520;SDS011;64102;48.628;9.002;2023-02-07T14:38:31;8.93;;;0.98;;
75520;SDS011;64102;48.628;9.002;2023-02-07T14:41:02;4.60;;;0.40;;
75520;SDS011;64102;48.628;9.002;2023-02-07T14:43:33;5.93;;;0.90;;
75520;SDS011;64102;48.628;9.002;2023-02-07T14:46:13;6.88;;;0.60;;
75520;SDS011;64102;48.628;9.002;2023-02-07T14:48:49;5.72;;;0.65;;
75520;SDS011;64102;48.628;9.002;2023-02-07T14:54:00;4.15;;;0.57;;
75520;SDS011;64102;48.628;9.002;2023-02-07T15:01:56;4.53;;;0.40;;
75520;SDS011;64102;48.628;9.002;2023-02-07T15:04:21;5.27;;;0.53;;
75520;SDS011;64102;48.628;9.002;2023-02-07T15:06:46;4.47;;;0.50;;
75520;SDS011;64102;48.628;9.002;2023-02-07T15:09:16;4.70;;;0.63;;
75520;SDS011;64102;48.628;9.002;2023-02-07T15:11:49;5.50;;;0.45;;
75520;SDS011;64102;48.628;9.002;2023-02-07T15:14:30;5.20;;;0.30;;
75520;SDS011;64102;48.628;9.002;2023-02-07T15:16:57;5.05;;;0.40;;
75520;SDS011;64102;48.628;9.002;2023-02-07T15:19:34;4.80;;;0.32;;
75520;SDS011;64102;48.628;9.002;2023-02-07T15:22:03;7.53;;;0.90;;
75520;SDS011;64102;48.628;9.002;2023-02-07T15:24:37;5.85;;;0.90;;
75520;SDS011;64102;48.628;9.002;2023-02-07T15:27:06;4.00;;;0.30;;
75520;SDS011;64102;48.628;9.002;2023-02-07T15:29:42;4.72;;;0.43;;
75520;SDS011;64102;48.628;9.002;2023-02-07T15:32:23;1.67;;;0.08;;
75520;SDS011;64102;48.628;9.002;2023-02-07T15:34:58;3.55;;;0.32;;
75520;SDS011;64102;48.628;9.002;2023-02-07T15:37:35;7.28;;;0.40;;
75520;SDS011;64102;48.628;9.002;2023-02-07T15:40:01;3.53;;;0.60;;
75520;SDS011;64102;48.628;9.002;2023-02-07T15:42:27;5.15;;;0.45;;
75520;SDS011;64102;48.628;9.002;2023-02-07T15:44:53;3.63;;;0.30;;
75520;SDS011;64102;48.628;9.002;2023-02-07T15:49:56;5.70;;;0.47;;
75520;SDS011;64102;48.628;9.002;2023-02-07T15:52:28;2.07;;;0.10;;
75520;SDS011;64102;48.628;9.002;2023-02-07T15:54:56;1.77;;;0.22;;
75520;SDS011;64102;48.628;9.002;2023-02-07T15:59:52;2.22;;;0.10;;
75520;SDS011;64102;48.628;9.002;2023-02-07T16:02:23;6.35;;;0.40;;
75520;SDS011;64102;48.628;9.002;2023-02-07T16:04:52;1.65;;;0.10;;
75520;SDS011;64102;48.628;9.002;2023-02-07T16:07:18;3.47;;;0.50;;
75520;SDS011;64102;48.628;9.002;2023-02-07T16:09:45;3.97;;;0.32;;
75520;SDS011;64102;48.628;9.002;2023-02-07T16:12:28;1.60;;;0.38;;
75520;SDS011;64102;48.628;9.002;2023-02-07T16:14:59;2.63;;;0.20;;
75520;SDS011;64102;48.628;9.002;2023-02-07T16:17:35;3.83;;;0.15;;
75520;SDS011;64102;48.628;9.002;2023-02-07T16:20:12;1.08;;;0.00;;
75520;SDS011;64102;48.628;9.002;2023-02-07T16:22:39;5.20;;;0.30;;
75520;SDS011;64102;48.628;9.002;2023-02-07T16:25:11;2.47;;;0.08;;
75520;SDS011;64102;48.628;9.002;2023-02-07T16:27:38;1.80;;;0.30;;
75520;SDS011;64102;48.628;9.002;2023-02-07T16:30:04;2.00;;;0.20;;
75520;SDS011;64102;48.628;9.002;2023-02-07T16:32:31;2.13;;;0.10;;
75520;SDS011;64102;48.628;9.002;2023-02-07T16:34:57;3.33;;;0.30;;
75520;SDS011;64102;48.628;9.002;2023-02-07T16:37:24;5.88;;;0.20;;
75520;SDS011;64102;48.628;9.002;2023-02-07T16:39:50;3.33;;;0.20;;
75520;SDS011;64102;48.628;9.002;2023-02-07T16:42:16;2.60;;;0.10;;
75520;SDS011;64102;48.628;9.002;2023-02-07T16:44:43;3.28;;;0.20;;
75520;SDS011;64102;48.628;9.002;2023-02-07T16:47:13;2.03;;;0.20;;
75520;SDS011;64102;48.628;9.002;2023-02-07T16:49:41;4.38;;;0.35;;
75520;SDS011;64102;48.628;9.002;2023-02-07T16:52:08;4.90;;;0.60;;
75520;SDS011;64102;48.628;9.002;2023-02-07T16:54:43;2.00;;;0.30;;
75520;SDS011;64102;48.628;9.002;2023-02-07T16:57:10;1.90;;;0.32;;
75520;SDS011;64102;48.628;9.002;2023-02-07T16:59:36;3.20;;;0.22;;
75520;SDS011;64102;48.628;9.002;2023-02-07T17:02:01;3.10;;;0.57;;
75520;SDS011;64102;48.628;9.002;2023-02-07T17:04:27;2.08;;;0.30;;
75520;SDS011;64102;48.628;9.002;2023-02-07T17:06:52;1.30;;;0.03;;
75520;SDS011;64102;48.628;9.002;2023-02-07T17:11:44;0.70;;;0.00;;
75520;SDS011;64102;48.628;9.002;2023-02-07T17:14:10;3.03;;;0.22;;
75520;SDS011;64102;48.628;9.002;2023-02-07T17:16:36;1.40;;;0.05;;
75520;SDS011;64102;48.628;9.002;2023-02-07T17:19:08;3.65;;;0.45;;
75520;SDS011;64102;48.628;9.002;2023-02-07T17:22:12;0.63;;;0.03;;
75520;SDS011;64102;48.628;9.002;2023-02-07T17:24:39;1.42;;;0.17;;
75520;SDS011;64102;48.628;9.002;2023-02-07T17:27:04;4.57;;;0.40;;